Elkins-Randolph Co-Jennings Randolph Field
KEKN : now visible

Airfield :











YOU CAN JOIN US ON...

 
LOGIN :

Register | Disclaimer

   EN    FR    IT 

 









Legend :    VFR   Marginal VFR   IFR   Intensive IFR   Very Intensive IFR
Visi :
Ceiling :
>= 8 km
>= 3000ft
5 to 8 km
1000 to 3000 ft
1500m to 5 km
500 to 1000 ft
800 to 1500m
200 to 500 ft
< 800m
< 200 ft
Symbols :   Thunderstorms  Fog  Heavy snow  Heavy precipitations  Wind > 20 kt






- Airport Elevation : 1987 ft


KEKN - Elkins-Randolph Co-Jennings Randolph Field

CURRENT METAR :
  • 221751Z AUTO 30012KT 10SM SCT035 01/M07 A2988 RMK AO2 SLP138 T00061072 10011 20000 51004

EXPIRED METARs :
  • 221702Z AUTO 26012G24KT 10SM SCT030 BKN036 01/M07 A2988 RMK AO2 T00061072
  • 221651Z AUTO 27008G20KT 10SM BKN028 BKN034 01/M07 A2988 RMK AO2 SLP138 T00061067
  • 221605Z AUTO 29015G21KT 10SM BKN026 OVC036 01/M06 A2989 RMK AO2 T00061056

TAF KEKN
Valid from the 22 at 18:00 until the 23 at 18:00 UTC


221720Z 2218/2318 28010G19KT P6SM SCT030 OVC040
TEMPO 2220/2223 6SM -SHSN
FM230000 29006KT P6SM OVC030
FM231600 29006KT P6SM SCT100
KZDC FIR / North America



MET'MAP, your aeronautical weather chart ! - Copyright ORBIFLY December 2007 - Disclaimer

ORBIFLY MET'MAP TEAM :

Programming & Development : Alexandra Zaïnal
Concept & original design : Baudouin d'Aumeries
Assistance for programming : Marc-Olivier Méhu
Technical & hardware support : Manuel Goepfert

Contact : metmap@orbifly.com




SOURCES & CREDITS :

   NOAA       Earth
Advisory